sensor_id;sensor_type;location;lat;lon;timestamp;P1;durP1;ratioP1;P2;durP2;ratioP2
19127;SDS011;9696;53.686;10.094;2023-06-26T00:00:20;8.75;;;5.47;;
19127;SDS011;9696;53.686;10.094;2023-06-26T00:02:49;9.32;;;5.20;;
19127;SDS011;9696;53.686;10.094;2023-06-26T00:05:19;8.00;;;5.75;;
19127;SDS011;9696;53.686;10.094;2023-06-26T00:07:48;7.38;;;5.60;;
19127;SDS011;9696;53.686;10.094;2023-06-26T00:10:17;7.97;;;5.82;;
19127;SDS011;9696;53.686;10.094;2023-06-26T00:12:47;8.15;;;6.35;;
19127;SDS011;9696;53.686;10.094;2023-06-26T00:15:16;9.18;;;5.82;;
19127;SDS011;9696;53.686;10.094;2023-06-26T00:17:46;8.00;;;6.18;;
19127;SDS011;9696;53.686;10.094;2023-06-26T00:20:17;8.10;;;6.05;;
19127;SDS011;9696;53.686;10.094;2023-06-26T00:22:47;8.00;;;6.15;;
19127;SDS011;9696;53.686;10.094;2023-06-26T00:25:17;11.88;;;6.80;;
19127;SDS011;9696;53.686;10.094;2023-06-26T00:27:46;12.65;;;6.15;;
19127;SDS011;9696;53.686;10.094;2023-06-26T00:30:15;7.68;;;6.25;;
19127;SDS011;9696;53.686;10.094;2023-06-26T00:32:44;8.98;;;6.47;;
19127;SDS011;9696;53.686;10.094;2023-06-26T00:35:15;8.50;;;6.25;;
19127;SDS011;9696;53.686;10.094;2023-06-26T00:37:44;7.30;;;6.03;;
19127;SDS011;9696;53.686;10.094;2023-06-26T00:40:13;8.13;;;6.30;;
19127;SDS011;9696;53.686;10.094;2023-06-26T00:42:43;7.15;;;6.43;;
19127;SDS011;9696;53.686;10.094;2023-06-26T00:45:14;7.15;;;5.97;;
19127;SDS011;9696;53.686;10.094;2023-06-26T00:47:57;9.68;;;6.20;;
19127;SDS011;9696;53.686;10.094;2023-06-26T00:50:26;11.85;;;6.15;;
19127;SDS011;9696;53.686;10.094;2023-06-26T00:52:56;9.60;;;6.85;;
19127;SDS011;9696;53.686;10.094;2023-06-26T00:55:27;7.78;;;6.35;;
19127;SDS011;9696;53.686;10.094;2023-06-26T00:57:57;7.65;;;6.45;;
19127;SDS011;9696;53.686;10.094;2023-06-26T01:00:28;8.93;;;6.78;;
19127;SDS011;9696;53.686;10.094;2023-06-26T01:02:58;7.53;;;6.18;;
19127;SDS011;9696;53.686;10.094;2023-06-26T01:05:28;9.63;;;6.63;;
19127;SDS011;9696;53.686;10.094;2023-06-26T01:07:58;10.13;;;6.07;;
19127;SDS011;9696;53.686;10.094;2023-06-26T01:10:28;8.38;;;6.78;;
19127;SDS011;9696;53.686;10.094;2023-06-26T01:12:59;11.20;;;6.20;;
19127;SDS011;9696;53.686;10.094;2023-06-26T01:15:28;8.23;;;6.93;;
19127;SDS011;9696;53.686;10.094;2023-06-26T01:17:59;7.93;;;6.53;;
19127;SDS011;9696;53.686;10.094;2023-06-26T01:20:31;7.97;;;6.65;;
19127;SDS011;9696;53.686;10.094;2023-06-26T01:23:05;12.43;;;7.28;;
19127;SDS011;9696;53.686;10.094;2023-06-26T01:25:46;9.02;;;6.78;;
19127;SDS011;9696;53.686;10.094;2023-06-26T01:28:31;9.00;;;7.30;;
19127;SDS011;9696;53.686;10.094;2023-06-26T01:31:02;9.18;;;7.25;;
19127;SDS011;9696;53.686;10.094;2023-06-26T01:33:32;13.43;;;8.15;;
19127;SDS011;9696;53.686;10.094;2023-06-26T01:36:02;10.38;;;7.13;;
19127;SDS011;9696;53.686;10.094;2023-06-26T01:38:34;9.23;;;7.13;;
19127;SDS011;9696;53.686;10.094;2023-06-26T01:41:03;11.88;;;7.65;;
19127;SDS011;9696;53.686;10.094;2023-06-26T01:43:41;7.50;;;6.72;;
19127;SDS011;9696;53.686;10.094;2023-06-26T01:46:24;11.98;;;7.10;;
19127;SDS011;9696;53.686;10.094;2023-06-26T01:49:02;9.10;;;7.22;;
19127;SDS011;9696;53.686;10.094;2023-06-26T01:51:37;9.70;;;6.70;;
19127;SDS011;9696;53.686;10.094;2023-06-26T01:54:10;15.05;;;6.43;;
19127;SDS011;9696;53.686;10.094;2023-06-26T01:56:45;9.02;;;6.80;;
19127;SDS011;9696;53.686;10.094;2023-06-26T01:59:19;10.32;;;7.22;;
19127;SDS011;9696;53.686;10.094;2023-06-26T02:01:50;7.80;;;6.57;;
19127;SDS011;9696;53.686;10.094;2023-06-26T02:04:21;8.25;;;6.75;;
19127;SDS011;9696;53.686;10.094;2023-06-26T02:06:51;9.70;;;7.68;;
19127;SDS011;9696;53.686;10.094;2023-06-26T02:09:21;8.07;;;6.78;;
19127;SDS011;9696;53.686;10.094;2023-06-26T02:11:51;10.75;;;6.78;;
19127;SDS011;9696;53.686;10.094;2023-06-26T02:14:21;13.55;;;7.05;;
19127;SDS011;9696;53.686;10.094;2023-06-26T02:16:50;9.55;;;6.70;;
19127;SDS011;9696;53.686;10.094;2023-06-26T02:19:19;8.70;;;6.35;;
19127;SDS011;9696;53.686;10.094;2023-06-26T02:21:49;12.60;;;6.63;;
19127;SDS011;9696;53.686;10.094;2023-06-26T02:24:18;10.68;;;6.25;;
19127;SDS011;9696;53.686;10.094;2023-06-26T02:26:47;8.18;;;6.40;;
19127;SDS011;9696;53.686;10.094;2023-06-26T02:29:17;10.15;;;6.53;;
19127;SDS011;9696;53.686;10.094;2023-06-26T02:31:47;8.85;;;6.45;;
19127;SDS011;9696;53.686;10.094;2023-06-26T02:34:16;8.35;;;6.70;;
19127;SDS011;9696;53.686;10.094;2023-06-26T02:36:46;10.23;;;5.93;;
19127;SDS011;9696;53.686;10.094;2023-06-26T02:39:15;9.32;;;6.80;;
19127;SDS011;9696;53.686;10.094;2023-06-26T02:41:45;9.82;;;6.60;;
19127;SDS011;9696;53.686;10.094;2023-06-26T02:44:15;13.52;;;5.55;;
19127;SDS011;9696;53.686;10.094;2023-06-26T02:46:44;9.68;;;6.00;;
19127;SDS011;9696;53.686;10.094;2023-06-26T02:49:15;6.78;;;5.90;;
19127;SDS011;9696;53.686;10.094;2023-06-26T02:51:48;8.05;;;6.03;;
19127;SDS011;9696;53.686;10.094;2023-06-26T02:54:25;8.98;;;6.00;;
19127;SDS011;9696;53.686;10.094;2023-06-26T02:57:00;11.20;;;5.88;;
19127;SDS011;9696;53.686;10.094;2023-06-26T02:59:31;8.48;;;5.88;;
19127;SDS011;9696;53.686;10.094;2023-06-26T03:02:00;6.53;;;5.63;;
19127;SDS011;9696;53.686;10.094;2023-06-26T03:04:39;6.93;;;5.75;;
19127;SDS011;9696;53.686;10.094;2023-06-26T03:07:12;9.20;;;6.10;;
19127;SDS011;9696;53.686;10.094;2023-06-26T03:09:42;8.77;;;6.03;;
19127;SDS011;9696;53.686;10.094;2023-06-26T03:12:12;9.73;;;5.75;;
19127;SDS011;9696;53.686;10.094;2023-06-26T03:14:41;8.20;;;6.00;;
19127;SDS011;9696;53.686;10.094;2023-06-26T03:17:13;7.43;;;5.50;;
19127;SDS011;9696;53.686;10.094;2023-06-26T03:19:46;10.25;;;5.47;;
19127;SDS011;9696;53.686;10.094;2023-06-26T03:22:21;8.55;;;6.10;;
19127;SDS011;9696;53.686;10.094;2023-06-26T03:24:50;7.05;;;5.82;;
19127;SDS011;9696;53.686;10.094;2023-06-26T03:27:19;9.98;;;6.43;;
19127;SDS011;9696;53.686;10.094;2023-06-26T03:29:49;8.27;;;6.05;;
19127;SDS011;9696;53.686;10.094;2023-06-26T03:32:21;11.35;;;5.68;;
19127;SDS011;9696;53.686;10.094;2023-06-26T03:34:51;10.55;;;5.90;;
19127;SDS011;9696;53.686;10.094;2023-06-26T03:37:20;8.93;;;5.88;;
19127;SDS011;9696;53.686;10.094;2023-06-26T03:39:50;7.10;;;5.43;;
19127;SDS011;9696;53.686;10.094;2023-06-26T03:42:20;7.25;;;5.78;;
19127;SDS011;9696;53.686;10.094;2023-06-26T03:44:50;7.25;;;5.40;;
19127;SDS011;9696;53.686;10.094;2023-06-26T03:47:19;9.30;;;5.35;;
19127;SDS011;9696;53.686;10.094;2023-06-26T03:49:48;9.60;;;5.35;;
19127;SDS011;9696;53.686;10.094;2023-06-26T03:52:19;8.75;;;5.60;;
19127;SDS011;9696;53.686;10.094;2023-06-26T03:54:48;10.48;;;5.30;;
19127;SDS011;9696;53.686;10.094;2023-06-26T03:57:17;8.25;;;5.43;;
19127;SDS011;9696;53.686;10.094;2023-06-26T03:59:47;6.88;;;5.65;;
19127;SDS011;9696;53.686;10.094;2023-06-26T04:02:17;10.45;;;5.43;;
19127;SDS011;9696;53.686;10.094;2023-06-26T04:04:46;9.52;;;6.07;;
19127;SDS011;9696;53.686;10.094;2023-06-26T04:07:15;7.47;;;5.35;;
19127;SDS011;9696;53.686;10.094;2023-06-26T04:09:46;8.13;;;5.18;;
19127;SDS011;9696;53.686;10.094;2023-06-26T04:12:15;7.40;;;5.20;;
19127;SDS011;9696;53.686;10.094;2023-06-26T04:14:44;11.68;;;5.88;;
19127;SDS011;9696;53.686;10.094;2023-06-26T04:17:13;9.60;;;5.30;;
19127;SDS011;9696;53.686;10.094;2023-06-26T04:19:42;8.02;;;5.45;;
19127;SDS011;9696;53.686;10.094;2023-06-26T04:22:12;7.57;;;5.15;;
19127;SDS011;9696;53.686;10.094;2023-06-26T04:24:41;8.93;;;5.45;;
19127;SDS011;9696;53.686;10.094;2023-06-26T04:27:14;6.95;;;5.50;;
19127;SDS011;9696;53.686;10.094;2023-06-26T04:29:43;7.72;;;5.70;;
19127;SDS011;9696;53.686;10.094;2023-06-26T04:32:12;6.88;;;5.10;;
19127;SDS011;9696;53.686;10.094;2023-06-26T04:34:41;13.88;;;5.40;;
19127;SDS011;9696;53.686;10.094;2023-06-26T04:37:11;9.60;;;5.15;;
19127;SDS011;9696;53.686;10.094;2023-06-26T04:39:43;9.35;;;5.07;;
19127;SDS011;9696;53.686;10.094;2023-06-26T04:42:13;9.90;;;5.03;;
19127;SDS011;9696;53.686;10.094;2023-06-26T04:44:43;7.20;;;5.15;;
19127;SDS011;9696;53.686;10.094;2023-06-26T04:47:12;8.77;;;5.18;;
19127;SDS011;9696;53.686;10.094;2023-06-26T04:49:42;6.40;;;4.80;;
19127;SDS011;9696;53.686;10.094;2023-06-26T04:52:13;12.30;;;5.10;;
19127;SDS011;9696;53.686;10.094;2023-06-26T04:54:42;6.68;;;5.18;;
19127;SDS011;9696;53.686;10.094;2023-06-26T04:57:11;7.68;;;5.18;;
19127;SDS011;9696;53.686;10.094;2023-06-26T04:59:43;6.82;;;5.13;;
19127;SDS011;9696;53.686;10.094;2023-06-26T05:02:14;6.97;;;4.95;;
19127;SDS011;9696;53.686;10.094;2023-06-26T05:04:43;5.82;;;4.57;;
19127;SDS011;9696;53.686;10.094;2023-06-26T05:07:14;7.85;;;5.15;;
19127;SDS011;9696;53.686;10.094;2023-06-26T05:09:44;7.55;;;4.70;;
19127;SDS011;9696;53.686;10.094;2023-06-26T05:12:21;8.00;;;4.82;;
19127;SDS011;9696;53.686;10.094;2023-06-26T05:14:54;5.25;;;4.10;;
19127;SDS011;9696;53.686;10.094;2023-06-26T05:17:24;4.90;;;3.75;;
19127;SDS011;9696;53.686;10.094;2023-06-26T05:19:53;4.90;;;3.88;;
19127;SDS011;9696;53.686;10.094;2023-06-26T05:22:23;5.38;;;3.83;;
19127;SDS011;9696;53.686;10.094;2023-06-26T05:24:54;6.10;;;3.67;;
19127;SDS011;9696;53.686;10.094;2023-06-26T05:27:29;5.30;;;3.88;;
19127;SDS011;9696;53.686;10.094;2023-06-26T05:29:58;7.97;;;3.92;;
19127;SDS011;9696;53.686;10.094;2023-06-26T05:32:28;7.97;;;4.32;;
19127;SDS011;9696;53.686;10.094;2023-06-26T05:34:58;4.07;;;3.53;;
19127;SDS011;9696;53.686;10.094;2023-06-26T05:37:30;7.40;;;3.95;;
19127;SDS011;9696;53.686;10.094;2023-06-26T05:40:01;7.20;;;3.53;;
19127;SDS011;9696;53.686;10.094;2023-06-26T05:42:34;7.10;;;4.00;;
19127;SDS011;9696;53.686;10.094;2023-06-26T05:45:04;6.38;;;3.88;;
19127;SDS011;9696;53.686;10.094;2023-06-26T05:47:33;4.88;;;3.53;;
19127;SDS011;9696;53.686;10.094;2023-06-26T05:50:04;5.88;;;3.90;;
19127;SDS011;9696;53.686;10.094;2023-06-26T05:52:34;5.00;;;3.78;;
19127;SDS011;9696;53.686;10.094;2023-06-26T05:55:06;5.30;;;3.47;;
19127;SDS011;9696;53.686;10.094;2023-06-26T05:57:37;8.07;;;3.53;;
19127;SDS011;9696;53.686;10.094;2023-06-26T06:00:08;6.35;;;3.60;;
19127;SDS011;9696;53.686;10.094;2023-06-26T06:02:42;5.05;;;3.65;;
19127;SDS011;9696;53.686;10.094;2023-06-26T06:05:11;8.10;;;3.72;;
19127;SDS011;9696;53.686;10.094;2023-06-26T06:07:40;7.10;;;3.13;;
19127;SDS011;9696;53.686;10.094;2023-06-26T06:10:09;4.57;;;3.40;;
19127;SDS011;9696;53.686;10.094;2023-06-26T06:12:40;6.20;;;3.28;;
19127;SDS011;9696;53.686;10.094;2023-06-26T06:15:09;5.75;;;3.88;;
19127;SDS011;9696;53.686;10.094;2023-06-26T06:17:39;3.90;;;3.40;;
19127;SDS011;9696;53.686;10.094;2023-06-26T06:20:08;3.90;;;2.95;;
19127;SDS011;9696;53.686;10.094;2023-06-26T06:22:38;5.97;;;3.50;;
19127;SDS011;9696;53.686;10.094;2023-06-26T06:25:08;5.22;;;3.35;;
19127;SDS011;9696;53.686;10.094;2023-06-26T06:27:37;9.45;;;3.58;;
19127;SDS011;9696;53.686;10.094;2023-06-26T06:30:08;6.75;;;3.60;;
19127;SDS011;9696;53.686;10.094;2023-06-26T06:32:38;5.68;;;2.85;;
19127;SDS011;9696;53.686;10.094;2023-06-26T06:35:08;5.40;;;3.90;;
19127;SDS011;9696;53.686;10.094;2023-06-26T06:37:37;4.78;;;3.53;;
19127;SDS011;9696;53.686;10.094;2023-06-26T06:40:08;5.75;;;3.42;;
19127;SDS011;9696;53.686;10.094;2023-06-26T06:42:38;4.45;;;3.40;;
19127;SDS011;9696;53.686;10.094;2023-06-26T06:45:09;7.03;;;3.20;;
19127;SDS011;9696;53.686;10.094;2023-06-26T06:47:38;6.50;;;3.28;;
19127;SDS011;9696;53.686;10.094;2023-06-26T06:50:08;5.75;;;3.00;;
19127;SDS011;9696;53.686;10.094;2023-06-26T06:52:37;6.25;;;3.22;;
19127;SDS011;9696;53.686;10.094;2023-06-26T06:55:07;9.10;;;3.50;;
19127;SDS011;9696;53.686;10.094;2023-06-26T06:57:37;7.63;;;3.47;;
19127;SDS011;9696;53.686;10.094;2023-06-26T07:00:09;5.43;;;3.30;;
19127;SDS011;9696;53.686;10.094;2023-06-26T07:02:42;6.13;;;3.58;;
19127;SDS011;9696;53.686;10.094;2023-06-26T07:05:12;3.80;;;3.30;;
19127;SDS011;9696;53.686;10.094;2023-06-26T07:07:41;6.10;;;3.47;;
19127;SDS011;9696;53.686;10.094;2023-06-26T07:10:11;6.32;;;3.63;;
19127;SDS011;9696;53.686;10.094;2023-06-26T07:12:41;5.68;;;3.33;;
19127;SDS011;9696;53.686;10.094;2023-06-26T07:15:13;5.15;;;3.10;;
19127;SDS011;9696;53.686;10.094;2023-06-26T07:17:42;4.15;;;3.22;;
19127;SDS011;9696;53.686;10.094;2023-06-26T07:20:11;5.43;;;3.30;;
19127;SDS011;9696;53.686;10.094;2023-06-26T07:22:42;7.57;;;3.28;;
19127;SDS011;9696;53.686;10.094;2023-06-26T07:25:13;9.25;;;4.03;;
19127;SDS011;9696;53.686;10.094;2023-06-26T07:27:42;6.15;;;3.38;;
19127;SDS011;9696;53.686;10.094;2023-06-26T07:30:13;5.72;;;3.70;;
19127;SDS011;9696;53.686;10.094;2023-06-26T07:32:44;6.03;;;3.65;;
19127;SDS011;9696;53.686;10.094;2023-06-26T07:35:13;13.25;;;3.33;;
19127;SDS011;9696;53.686;10.094;2023-06-26T07:37:43;5.78;;;3.35;;
19127;SDS011;9696;53.686;10.094;2023-06-26T07:40:13;9.07;;;3.35;;
19127;SDS011;9696;53.686;10.094;2023-06-26T07:42:44;8.02;;;3.42;;
19127;SDS011;9696;53.686;10.094;2023-06-26T07:45:16;8.90;;;3.65;;
19127;SDS011;9696;53.686;10.094;2023-06-26T07:47:45;4.90;;;3.30;;
19127;SDS011;9696;53.686;10.094;2023-06-26T07:50:14;6.50;;;3.72;;
19127;SDS011;9696;53.686;10.094;2023-06-26T07:52:48;6.43;;;3.70;;
19127;SDS011;9696;53.686;10.094;2023-06-26T07:55:19;8.35;;;3.42;;
19127;SDS011;9696;53.686;10.094;2023-06-26T07:57:48;7.70;;;3.63;;
19127;SDS011;9696;53.686;10.094;2023-06-26T08:00:20;4.78;;;3.60;;
19127;SDS011;9696;53.686;10.094;2023-06-26T08:02:52;7.28;;;3.65;;
19127;SDS011;9696;53.686;10.094;2023-06-26T08:05:21;4.15;;;3.50;;
19127;SDS011;9696;53.686;10.094;2023-06-26T08:07:50;4.63;;;3.67;;
19127;SDS011;9696;53.686;10.094;2023-06-26T08:10:20;9.13;;;3.50;;
19127;SDS011;9696;53.686;10.094;2023-06-26T08:12:49;7.78;;;4.38;;
19127;SDS011;9696;53.686;10.094;2023-06-26T08:15:21;8.70;;;3.50;;
19127;SDS011;9696;53.686;10.094;2023-06-26T08:17:50;11.90;;;3.70;;
19127;SDS011;9696;53.686;10.094;2023-06-26T08:20:19;8.75;;;4.00;;
19127;SDS011;9696;53.686;10.094;2023-06-26T08:22:49;10.35;;;3.67;;
19127;SDS011;9696;53.686;10.094;2023-06-26T08:25:20;7.45;;;3.63;;
19127;SDS011;9696;53.686;10.094;2023-06-26T08:27:49;6.97;;;3.55;;
19127;SDS011;9696;53.686;10.094;2023-06-26T08:30:22;9.48;;;3.63;;
19127;SDS011;9696;53.686;10.094;2023-06-26T08:32:54;8.77;;;3.58;;
19127;SDS011;9696;53.686;10.094;2023-06-26T08:35:24;6.63;;;3.72;;
19127;SDS011;9696;53.686;10.094;2023-06-26T08:37:53;12.88;;;4.07;;
19127;SDS011;9696;53.686;10.094;2023-06-26T08:40:22;8.15;;;3.85;;
19127;SDS011;9696;53.686;10.094;2023-06-26T08:42:53;5.10;;;3.70;;
19127;SDS011;9696;53.686;10.094;2023-06-26T08:45:24;6.65;;;3.95;;
19127;SDS011;9696;53.686;10.094;2023-06-26T08:47:55;10.13;;;4.00;;
19127;SDS011;9696;53.686;10.094;2023-06-26T08:50:28;5.75;;;3.97;;
19127;SDS011;9696;53.686;10.094;2023-06-26T08:53:03;8.25;;;4.28;;
19127;SDS011;9696;53.686;10.094;2023-06-26T08:55:40;9.35;;;4.20;;
19127;SDS011;9696;53.686;10.094;2023-06-26T08:58:11;10.10;;;4.07;;
19127;SDS011;9696;53.686;10.094;2023-06-26T09:00:41;5.53;;;4.30;;
19127;SDS011;9696;53.686;10.094;2023-06-26T09:03:11;15.75;;;4.25;;
19127;SDS011;9696;53.686;10.094;2023-06-26T09:05:42;6.32;;;4.18;;
19127;SDS011;9696;53.686;10.094;2023-06-26T09:08:11;12.48;;;4.25;;
19127;SDS011;9696;53.686;10.094;2023-06-26T09:10:41;7.68;;;3.83;;
19127;SDS011;9696;53.686;10.094;2023-06-26T09:13:12;8.77;;;3.97;;
19127;SDS011;9696;53.686;10.094;2023-06-26T09:15:56;13.27;;;4.05;;
19127;SDS011;9696;53.686;10.094;2023-06-26T09:18:27;11.85;;;4.10;;
19127;SDS011;9696;53.686;10.094;2023-06-26T09:20:56;7.32;;;4.50;;
19127;SDS011;9696;53.686;10.094;2023-06-26T09:23:25;7.20;;;4.47;;
19127;SDS011;9696;53.686;10.094;2023-06-26T09:25:55;16.70;;;4.45;;
19127;SDS011;9696;53.686;10.094;2023-06-26T09:28:24;8.70;;;4.93;;
19127;SDS011;9696;53.686;10.094;2023-06-26T09:30:55;8.95;;;4.75;;
19127;SDS011;9696;53.686;10.094;2023-06-26T09:33:34;13.98;;;4.70;;
19127;SDS011;9696;53.686;10.094;2023-06-26T09:36:07;11.52;;;4.93;;
19127;SDS011;9696;53.686;10.094;2023-06-26T09:38:46;6.95;;;4.90;;
19127;SDS011;9696;53.686;10.094;2023-06-26T09:41:15;8.38;;;5.35;;
19127;SDS011;9696;53.686;10.094;2023-06-26T09:43:45;10.02;;;4.97;;
19127;SDS011;9696;53.686;10.094;2023-06-26T09:46:17;14.18;;;5.32;;
19127;SDS011;9696;53.686;10.094;2023-06-26T09:48:57;10.82;;;5.88;;
19127;SDS011;9696;53.686;10.094;2023-06-26T09:51:31;11.35;;;5.15;;
19127;SDS011;9696;53.686;10.094;2023-06-26T09:54:03;13.13;;;4.93;;
19127;SDS011;9696;53.686;10.094;2023-06-26T09:56:33;18.60;;;5.57;;
19127;SDS011;9696;53.686;10.094;2023-06-26T09:59:03;11.82;;;5.20;;
19127;SDS011;9696;53.686;10.094;2023-06-26T10:01:39;11.88;;;5.10;;
19127;SDS011;9696;53.686;10.094;2023-06-26T10:04:10;12.20;;;5.60;;
19127;SDS011;9696;53.686;10.094;2023-06-26T10:06:41;11.35;;;6.07;;
19127;SDS011;9696;53.686;10.094;2023-06-26T10:09:13;10.60;;;5.82;;
19127;SDS011;9696;53.686;10.094;2023-06-26T10:11:46;7.75;;;5.18;;
19127;SDS011;9696;53.686;10.094;2023-06-26T10:14:21;11.48;;;5.47;;
19127;SDS011;9696;53.686;10.094;2023-06-26T10:16:57;10.27;;;5.28;;
19127;SDS011;9696;53.686;10.094;2023-06-26T10:19:27;8.50;;;6.00;;
19127;SDS011;9696;53.686;10.094;2023-06-26T10:21:58;12.95;;;6.88;;
19127;SDS011;9696;53.686;10.094;2023-06-26T10:24:31;11.80;;;6.90;;
19127;SDS011;9696;53.686;10.094;2023-06-26T10:27:04;16.38;;;6.88;;
19127;SDS011;9696;53.686;10.094;2023-06-26T10:29:42;20.75;;;7.30;;
19127;SDS011;9696;53.686;10.094;2023-06-26T10:32:16;14.85;;;6.75;;
19127;SDS011;9696;53.686;10.094;2023-06-26T10:34:46;13.75;;;7.22;;
19127;SDS011;9696;53.686;10.094;2023-06-26T10:37:16;11.35;;;7.53;;
19127;SDS011;9696;53.686;10.094;2023-06-26T10:39:46;14.75;;;7.75;;
19127;SDS011;9696;53.686;10.094;2023-06-26T10:42:17;13.43;;;7.13;;
19127;SDS011;9696;53.686;10.094;2023-06-26T10:44:48;15.02;;;7.68;;
19127;SDS011;9696;53.686;10.094;2023-06-26T10:47:31;9.23;;;5.15;;
19127;SDS011;9696;53.686;10.094;2023-06-26T10:50:19;11.57;;;4.90;;
19127;SDS011;9696;53.686;10.094;2023-06-26T10:53:10;4.75;;;3.60;;
19127;SDS011;9696;53.686;10.094;2023-06-26T10:55:47;6.05;;;3.97;;
19127;SDS011;9696;53.686;10.094;2023-06-26T10:58:26;9.00;;;4.50;;
19127;SDS011;9696;53.686;10.094;2023-06-26T11:01:19;5.53;;;3.90;;
19127;SDS011;9696;53.686;10.094;2023-06-26T11:04:05;7.25;;;4.70;;
19127;SDS011;9696;53.686;10.094;2023-06-26T11:06:36;8.27;;;4.55;;
19127;SDS011;9696;53.686;10.094;2023-06-26T11:09:07;7.50;;;4.63;;
19127;SDS011;9696;53.686;10.094;2023-06-26T11:14:32;9.18;;;6.28;;
19127;SDS011;9696;53.686;10.094;2023-06-26T11:17:02;8.05;;;5.38;;
19127;SDS011;9696;53.686;10.094;2023-06-26T11:19:33;10.52;;;5.90;;
19127;SDS011;9696;53.686;10.094;2023-06-26T11:22:04;13.18;;;5.63;;
19127;SDS011;9696;53.686;10.094;2023-06-26T11:24:33;8.38;;;4.53;;
19127;SDS011;9696;53.686;10.094;2023-06-26T11:27:04;11.05;;;5.00;;
19127;SDS011;9696;53.686;10.094;2023-06-26T11:29:35;13.02;;;5.00;;
19127;SDS011;9696;53.686;10.094;2023-06-26T11:32:05;12.60;;;4.97;;
19127;SDS011;9696;53.686;10.094;2023-06-26T11:34:36;10.65;;;3.45;;
19127;SDS011;9696;53.686;10.094;2023-06-26T11:37:05;8.07;;;3.55;;
19127;SDS011;9696;53.686;10.094;2023-06-26T11:39:35;8.93;;;3.30;;
19127;SDS011;9696;53.686;10.094;2023-06-26T11:42:05;8.77;;;3.50;;
19127;SDS011;9696;53.686;10.094;2023-06-26T11:44:39;11.32;;;3.30;;
19127;SDS011;9696;53.686;10.094;2023-06-26T11:47:12;5.95;;;2.30;;
19127;SDS011;9696;53.686;10.094;2023-06-26T11:49:44;12.85;;;2.72;;
19127;SDS011;9696;53.686;10.094;2023-06-26T11:52:14;7.80;;;2.83;;
19127;SDS011;9696;53.686;10.094;2023-06-26T11:54:44;6.72;;;2.13;;
19127;SDS011;9696;53.686;10.094;2023-06-26T11:57:14;6.63;;;1.65;;
19127;SDS011;9696;53.686;10.094;2023-06-26T11:59:44;7.82;;;1.67;;
19127;SDS011;9696;53.686;10.094;2023-06-26T12:02:17;5.47;;;1.27;;
19127;SDS011;9696;53.686;10.094;2023-06-26T12:04:50;4.40;;;1.25;;
19127;SDS011;9696;53.686;10.094;2023-06-26T12:07:19;8.65;;;1.75;;
19127;SDS011;9696;53.686;10.094;2023-06-26T12:09:50;10.50;;;1.55;;
19127;SDS011;9696;53.686;10.094;2023-06-26T12:12:20;5.07;;;1.38;;
19127;SDS011;9696;53.686;10.094;2023-06-26T12:14:50;4.80;;;1.27;;
19127;SDS011;9696;53.686;10.094;2023-06-26T12:17:22;5.95;;;1.42;;
19127;SDS011;9696;53.686;10.094;2023-06-26T12:19:53;7.43;;;1.40;;
19127;SDS011;9696;53.686;10.094;2023-06-26T12:22:22;4.80;;;1.15;;
19127;SDS011;9696;53.686;10.094;2023-06-26T12:24:52;5.47;;;1.60;;
19127;SDS011;9696;53.686;10.094;2023-06-26T12:27:25;4.80;;;1.50;;
19127;SDS011;9696;53.686;10.094;2023-06-26T12:29:54;6.50;;;1.58;;
19127;SDS011;9696;53.686;10.094;2023-06-26T12:32:24;5.85;;;1.33;;
19127;SDS011;9696;53.686;10.094;2023-06-26T12:34:56;7.35;;;1.50;;
19127;SDS011;9696;53.686;10.094;2023-06-26T12:37:25;5.63;;;1.77;;
19127;SDS011;9696;53.686;10.094;2023-06-26T12:39:55;6.30;;;1.35;;
19127;SDS011;9696;53.686;10.094;2023-06-26T12:42:25;9.15;;;1.67;;
19127;SDS011;9696;53.686;10.094;2023-06-26T12:44:56;5.63;;;1.55;;
19127;SDS011;9696;53.686;10.094;2023-06-26T12:47:25;6.82;;;1.50;;
19127;SDS011;9696;53.686;10.094;2023-06-26T12:49:57;9.07;;;1.38;;
19127;SDS011;9696;53.686;10.094;2023-06-26T12:52:26;6.32;;;1.30;;
19127;SDS011;9696;53.686;10.094;2023-06-26T12:54:55;9.93;;;1.60;;
19127;SDS011;9696;53.686;10.094;2023-06-26T12:57:25;7.35;;;1.30;;
19127;SDS011;9696;53.686;10.094;2023-06-26T12:59:58;8.15;;;2.08;;
19127;SDS011;9696;53.686;10.094;2023-06-26T13:02:32;7.88;;;1.48;;
19127;SDS011;9696;53.686;10.094;2023-06-26T13:05:08;5.32;;;1.23;;
19127;SDS011;9696;53.686;10.094;2023-06-26T13:07:38;5.05;;;1.67;;
19127;SDS011;9696;53.686;10.094;2023-06-26T13:10:07;3.70;;;1.23;;
19127;SDS011;9696;53.686;10.094;2023-06-26T13:12:37;7.45;;;1.70;;
19127;SDS011;9696;53.686;10.094;2023-06-26T13:15:06;13.68;;;1.50;;
19127;SDS011;9696;53.686;10.094;2023-06-26T13:17:36;4.70;;;1.30;;
19127;SDS011;9696;53.686;10.094;2023-06-26T13:20:06;9.40;;;1.40;;
19127;SDS011;9696;53.686;10.094;2023-06-26T13:22:38;5.90;;;1.20;;
19127;SDS011;9696;53.686;10.094;2023-06-26T13:25:07;5.60;;;1.10;;
19127;SDS011;9696;53.686;10.094;2023-06-26T13:27:38;5.88;;;1.38;;
19127;SDS011;9696;53.686;10.094;2023-06-26T13:30:08;4.95;;;1.08;;
19127;SDS011;9696;53.686;10.094;2023-06-26T13:32:37;13.10;;;1.35;;
19127;SDS011;9696;53.686;10.094;2023-06-26T13:35:08;7.57;;;1.23;;
19127;SDS011;9696;53.686;10.094;2023-06-26T13:37:37;5.60;;;1.17;;
19127;SDS011;9696;53.686;10.094;2023-06-26T13:40:07;4.28;;;1.20;;
19127;SDS011;9696;53.686;10.094;2023-06-26T13:42:37;4.70;;;1.02;;
19127;SDS011;9696;53.686;10.094;2023-06-26T13:45:08;6.18;;;1.40;;
19127;SDS011;9696;53.686;10.094;2023-06-26T13:47:56;10.00;;;1.42;;
19127;SDS011;9696;53.686;10.094;2023-06-26T13:50:27;4.65;;;1.02;;
19127;SDS011;9696;53.686;10.094;2023-06-26T13:53:10;10.25;;;1.65;;
19127;SDS011;9696;53.686;10.094;2023-06-26T13:55:40;6.07;;;1.10;;
19127;SDS011;9696;53.686;10.094;2023-06-26T13:58:10;3.08;;;1.10;;
19127;SDS011;9696;53.686;10.094;2023-06-26T14:00:40;2.85;;;1.00;;
19127;SDS011;9696;53.686;10.094;2023-06-26T14:03:12;4.13;;;1.05;;
19127;SDS011;9696;53.686;10.094;2023-06-26T14:05:42;8.70;;;1.00;;
19127;SDS011;9696;53.686;10.094;2023-06-26T14:08:12;5.82;;;0.90;;
19127;SDS011;9696;53.686;10.094;2023-06-26T14:10:42;2.55;;;0.80;;
19127;SDS011;9696;53.686;10.094;2023-06-26T14:13:11;6.90;;;1.02;;
19127;SDS011;9696;53.686;10.094;2023-06-26T14:15:42;3.72;;;0.88;;
19127;SDS011;9696;53.686;10.094;2023-06-26T14:18:11;5.97;;;1.20;;
19127;SDS011;9696;53.686;10.094;2023-06-26T14:20:41;3.63;;;0.88;;
19127;SDS011;9696;53.686;10.094;2023-06-26T14:23:11;2.25;;;0.85;;
19127;SDS011;9696;53.686;10.094;2023-06-26T14:25:41;3.83;;;1.00;;
19127;SDS011;9696;53.686;10.094;2023-06-26T14:28:12;4.95;;;1.00;;
19127;SDS011;9696;53.686;10.094;2023-06-26T14:30:42;7.53;;;0.90;;
19127;SDS011;9696;53.686;10.094;2023-06-26T14:33:11;2.35;;;0.70;;
19127;SDS011;9696;53.686;10.094;2023-06-26T14:35:40;4.60;;;1.20;;
19127;SDS011;9696;53.686;10.094;2023-06-26T14:38:11;4.65;;;1.45;;
19127;SDS011;9696;53.686;10.094;2023-06-26T14:40:40;5.80;;;1.00;;
19127;SDS011;9696;53.686;10.094;2023-06-26T14:43:10;3.47;;;0.80;;
19127;SDS011;9696;53.686;10.094;2023-06-26T14:45:40;3.08;;;0.80;;
19127;SDS011;9696;53.686;10.094;2023-06-26T14:48:09;2.58;;;0.73;;
19127;SDS011;9696;53.686;10.094;2023-06-26T14:50:39;2.92;;;0.80;;
19127;SDS011;9696;53.686;10.094;2023-06-26T14:53:09;6.10;;;0.98;;
19127;SDS011;9696;53.686;10.094;2023-06-26T14:55:40;2.30;;;0.82;;
19127;SDS011;9696;53.686;10.094;2023-06-26T14:58:10;2.53;;;0.68;;
19127;SDS011;9696;53.686;10.094;2023-06-26T15:00:41;3.03;;;1.05;;
19127;SDS011;9696;53.686;10.094;2023-06-26T15:03:12;3.35;;;1.17;;
19127;SDS011;9696;53.686;10.094;2023-06-26T15:05:45;3.95;;;1.02;;
19127;SDS011;9696;53.686;10.094;2023-06-26T15:08:18;8.15;;;1.20;;
19127;SDS011;9696;53.686;10.094;2023-06-26T15:10:49;6.55;;;1.17;;